createdAt,value
2023-04-27T00:01:02.690Z,16.10
2023-04-27T00:03:30.998Z,17.88
2023-04-27T00:05:59.366Z,15.55
2023-04-27T00:08:27.489Z,14.52
2023-04-27T00:10:55.637Z,14.77
2023-04-27T00:13:24.006Z,13.60
2023-04-27T00:15:52.301Z,14.77
2023-04-27T00:18:22.004Z,14.82
2023-04-27T00:20:51.147Z,13.43
2023-04-27T00:23:19.460Z,13.43
2023-04-27T00:25:47.543Z,11.10
2023-04-27T00:28:15.803Z,11.60
2023-04-27T00:30:45.084Z,11.98
2023-04-27T00:33:13.273Z,12.88
2023-04-27T00:35:42.703Z,13.63
2023-04-27T00:38:11.065Z,13.90
2023-04-27T00:40:39.375Z,13.40
2023-04-27T00:43:07.482Z,13.52
2023-04-27T00:45:42.289Z,12.82
2023-04-27T00:48:10.577Z,12.38
2023-04-27T00:50:39.487Z,12.75
2023-04-27T00:53:09.337Z,12.32
2023-04-27T00:55:37.635Z,13.40
2023-04-27T00:58:06.045Z,14.88
2023-04-27T01:00:37.155Z,15.25
2023-04-27T01:03:05.769Z,13.63
2023-04-27T01:05:34.378Z,13.88
2023-04-27T01:08:03.338Z,12.88
2023-04-27T01:10:32.912Z,13.63
2023-04-27T01:13:01.144Z,13.25
2023-04-27T01:15:29.516Z,14.02
2023-04-27T01:18:01.420Z,13.77
2023-04-27T01:20:30.475Z,14.00
2023-04-27T01:22:59.073Z,11.88
2023-04-27T01:25:28.621Z,12.90
2023-04-27T01:27:56.768Z,11.52
2023-04-27T01:30:24.976Z,12.52
2023-04-27T01:32:53.191Z,11.25
2023-04-27T01:35:27.594Z,11.05
2023-04-27T01:37:57.854Z,11.80
2023-04-27T01:40:25.921Z,12.43
2023-04-27T01:42:55.428Z,11.98
2023-04-27T01:45:23.737Z,13.77
2023-04-27T01:47:53.310Z,13.85
2023-04-27T01:50:21.601Z,13.15
2023-04-27T01:52:49.757Z,13.05
2023-04-27T01:55:18.019Z,13.10
2023-04-27T01:57:46.121Z,13.57
2023-04-27T02:00:17.768Z,13.30
2023-04-27T02:02:46.097Z,14.10
2023-04-27T02:05:14.426Z,12.95
2023-04-27T02:07:42.602Z,12.88
2023-04-27T02:10:11.670Z,11.65
2023-04-27T02:12:40.105Z,11.13
2023-04-27T02:15:09.662Z,11.50
2023-04-27T02:17:39.747Z,11.38
2023-04-27T02:20:10.036Z,11.93
2023-04-27T02:22:38.293Z,11.15
2023-04-27T02:25:07.305Z,12.63
2023-04-27T02:27:35.342Z,12.23
2023-04-27T02:30:06.480Z,13.20
2023-04-27T02:32:35.698Z,12.77
2023-04-27T02:35:05.931Z,11.60
2023-04-27T02:37:34.148Z,11.80
2023-04-27T02:40:02.475Z,11.10
2023-04-27T02:42:31.655Z,11.13
2023-04-27T02:44:59.722Z,11.57
2023-04-27T02:47:28.057Z,11.23
2023-04-27T02:49:56.231Z,11.95
2023-04-27T02:52:25.718Z,12.25
2023-04-27T02:54:53.832Z,10.50
2023-04-27T02:57:21.943Z,11.90
2023-04-27T02:59:50.050Z,11.70
2023-04-27T03:02:18.285Z,18.00
2023-04-27T03:04:46.449Z,13.55
2023-04-27T03:07:14.587Z,13.75
2023-04-27T03:09:43.990Z,12.77
2023-04-27T03:12:12.211Z,12.90
2023-04-27T03:14:40.705Z,12.77
2023-04-27T03:17:09.005Z,12.05
2023-04-27T03:19:37.254Z,12.38
2023-04-27T03:22:05.290Z,11.77
2023-04-27T03:24:33.384Z,10.38
2023-04-27T03:27:03.530Z,9.73
2023-04-27T03:29:31.585Z,9.52
2023-04-27T03:31:59.672Z,10.48
2023-04-27T03:34:27.758Z,10.43
2023-04-27T03:36:56.253Z,10.32
2023-04-27T03:39:24.353Z,11.05
2023-04-27T03:41:52.444Z,10.35
2023-04-27T03:44:21.958Z,10.30
2023-04-27T03:46:50.340Z,13.88
2023-04-27T03:49:18.543Z,10.82
2023-04-27T03:51:46.695Z,10.85
2023-04-27T03:54:15.133Z,22.52
2023-04-27T03:56:44.534Z,11.05
2023-04-27T03:59:12.916Z,10.20
2023-04-27T04:01:42.696Z,10.85
2023-04-27T04:04:11.525Z,12.10
2023-04-27T04:06:39.795Z,10.23
2023-04-27T04:09:07.902Z,12.73
2023-04-27T04:11:36.020Z,11.60
2023-04-27T04:14:04.121Z,11.25
2023-04-27T04:16:32.206Z,10.73
2023-04-27T04:19:01.715Z,10.43
2023-04-27T04:21:29.847Z,11.75
2023-04-27T04:23:57.938Z,10.65
2023-04-27T04:26:26.101Z,11.35
2023-04-27T04:28:54.100Z,10.57
2023-04-27T04:31:22.194Z,10.85
2023-04-27T04:33:50.571Z,10.27
2023-04-27T04:36:20.141Z,9.77
2023-04-27T04:38:48.385Z,10.27
2023-04-27T04:41:16.629Z,10.20
2023-04-27T04:43:44.722Z,10.38
2023-04-27T04:46:12.975Z,10.23
2023-04-27T04:48:41.044Z,12.90
2023-04-27T04:51:09.226Z,49.75
2023-04-27T04:53:38.751Z,11.65
2023-04-27T04:56:10.606Z,11.88
2023-04-27T04:58:39.040Z,10.18
2023-04-27T05:01:07.590Z,10.90
2023-04-27T05:03:36.045Z,11.43
2023-04-27T05:06:04.387Z,11.07
2023-04-27T05:08:32.585Z,13.05
2023-04-27T05:11:02.061Z,15.48
2023-04-27T05:13:30.172Z,12.45
2023-04-27T05:15:58.236Z,13.55
2023-04-27T05:18:26.419Z,14.18
2023-04-27T05:20:54.665Z,15.02
2023-04-27T05:23:23.003Z,14.38
2023-04-27T05:25:51.132Z,14.13
2023-04-27T05:28:20.859Z,14.45
2023-04-27T05:30:48.970Z,13.90
2023-04-27T05:33:17.059Z,13.20
2023-04-27T05:35:45.120Z,12.60
2023-04-27T05:38:15.209Z,14.07
2023-04-27T05:40:43.438Z,12.13
2023-04-27T05:43:11.704Z,11.10
2023-04-27T05:45:42.376Z,12.13
2023-04-27T05:48:10.508Z,10.73
2023-04-27T05:50:38.659Z,12.00
2023-04-27T05:53:07.110Z,9.35
2023-04-27T05:55:35.228Z,11.88
2023-04-27T05:58:08.389Z,11.63
2023-04-27T06:00:38.528Z,11.13
2023-04-27T06:03:08.250Z,12.70
2023-04-27T06:05:36.640Z,12.52
2023-04-27T06:08:04.909Z,13.50
2023-04-27T06:10:32.964Z,14.35
2023-04-27T06:13:01.116Z,14.45
2023-04-27T06:15:29.372Z,14.73
2023-04-27T06:17:57.548Z,12.73
2023-04-27T06:20:27.593Z,12.65
2023-04-27T06:22:57.155Z,15.50
2023-04-27T06:25:27.176Z,14.23
2023-04-27T06:27:55.738Z,12.88
2023-04-27T06:30:24.315Z,15.25
2023-04-27T06:32:53.232Z,12.23
2023-04-27T06:35:21.594Z,11.65
2023-04-27T06:37:51.424Z,13.30
2023-04-27T06:40:19.669Z,11.05
2023-04-27T06:42:47.914Z,12.13
2023-04-27T06:45:16.083Z,12.95
2023-04-27T06:47:44.200Z,12.85
2023-04-27T06:50:12.382Z,12.40
2023-04-27T06:52:40.509Z,12.85
2023-04-27T06:55:10.776Z,12.18
2023-04-27T06:57:38.870Z,12.20
2023-04-27T07:00:08.967Z,11.23
2023-04-27T07:02:37.126Z,10.07
2023-04-27T07:05:05.606Z,9.48
2023-04-27T07:07:33.693Z,10.05
2023-04-27T07:10:01.761Z,9.38
2023-04-27T07:12:31.443Z,10.35
2023-04-27T07:14:59.520Z,10.45
2023-04-27T07:17:27.656Z,9.25
2023-04-27T07:19:55.797Z,11.13
2023-04-27T07:22:23.955Z,9.68
2023-04-27T07:24:52.680Z,10.57
2023-04-27T07:27:20.836Z,7.10
2023-04-27T07:29:50.462Z,6.05
2023-04-27T07:32:18.639Z,9.20
2023-04-27T07:34:53.314Z,4.95
2023-04-27T07:37:22.528Z,5.00
2023-04-27T07:39:52.024Z,4.30
2023-04-27T07:42:20.258Z,4.57
2023-04-27T07:44:50.649Z,4.70
2023-04-27T07:47:18.800Z,3.15
2023-04-27T07:49:47.222Z,3.55
2023-04-27T07:52:15.965Z,3.83
2023-04-27T07:54:44.332Z,4.10
2023-04-27T07:57:12.880Z,4.40
2023-04-27T07:59:41.061Z,4.57
2023-04-27T08:02:18.569Z,4.20
2023-04-27T08:04:48.610Z,3.38
2023-04-27T08:07:17.804Z,3.67
2023-04-27T08:09:46.282Z,3.20
2023-04-27T08:12:14.547Z,3.55
2023-04-27T08:14:42.642Z,4.20
2023-04-27T08:17:12.474Z,4.15
2023-04-27T08:19:42.111Z,3.95
2023-04-27T08:22:10.264Z,4.32
2023-04-27T08:24:38.472Z,4.13
2023-04-27T08:27:07.258Z,4.40
2023-04-27T08:29:35.507Z,4.30
2023-04-27T08:32:04.631Z,3.97
2023-04-27T08:34:34.246Z,4.70
2023-04-27T08:37:04.460Z,5.00
2023-04-27T08:39:32.831Z,5.85
2023-04-27T08:42:00.909Z,4.88
2023-04-27T08:44:29.016Z,5.72
2023-04-27T08:46:57.153Z,5.28
2023-04-27T08:49:25.178Z,4.93
2023-04-27T08:51:54.636Z,5.65
2023-04-27T08:54:23.045Z,6.40
2023-04-27T08:56:51.193Z,5.05
2023-04-27T08:59:19.261Z,3.75
2023-04-27T09:01:49.171Z,3.72
2023-04-27T09:04:20.031Z,3.70
2023-04-27T09:06:49.773Z,3.75
2023-04-27T09:09:26.306Z,3.47
2023-04-27T09:11:54.470Z,4.15
2023-04-27T09:14:24.835Z,4.47
2023-04-27T09:16:58.181Z,5.22
2023-04-27T09:19:27.173Z,5.47
2023-04-27T09:22:05.527Z,4.63
2023-04-27T09:24:35.035Z,3.28
2023-04-27T09:27:05.206Z,3.33
2023-04-27T09:29:38.691Z,3.65
2023-04-27T09:32:17.731Z,3.40
2023-04-27T09:34:46.455Z,3.15
2023-04-27T09:37:15.651Z,3.90
2023-04-27T09:39:45.856Z,4.20
2023-04-27T09:42:15.942Z,3.60
2023-04-27T09:44:44.030Z,4.03
2023-04-27T09:47:12.402Z,4.38
2023-04-27T09:49:40.584Z,4.00
2023-04-27T09:52:08.683Z,3.05
2023-04-27T09:54:38.357Z,3.40
2023-04-27T09:57:18.147Z,2.28
2023-04-27T09:59:56.807Z,9.57
2023-04-27T10:02:26.027Z,5.15
2023-04-27T10:05:17.696Z,2.88
2023-04-27T10:07:49.381Z,2.70
2023-04-27T10:10:18.912Z,2.40
2023-04-27T10:12:57.857Z,2.38
2023-04-27T10:15:30.306Z,2.40
2023-04-27T10:18:06.151Z,2.85
2023-04-27T10:20:36.106Z,2.92
2023-04-27T10:23:04.756Z,2.58
2023-04-27T10:25:40.622Z,2.95
2023-04-27T10:28:16.415Z,2.85
2023-04-27T10:30:47.293Z,3.03
2023-04-27T10:33:18.800Z,2.88
2023-04-27T10:35:55.605Z,2.88
2023-04-27T10:38:29.581Z,3.70
2023-04-27T10:41:01.775Z,3.33
2023-04-27T10:43:32.875Z,2.60
2023-04-27T10:46:11.689Z,2.97
2023-04-27T10:48:40.817Z,3.38
2023-04-27T10:51:09.446Z,3.78
2023-04-27T10:53:37.800Z,2.90
2023-04-27T10:56:07.233Z,3.20
2023-04-27T11:01:10.136Z,3.42
2023-04-27T11:03:39.114Z,2.92
2023-04-27T11:06:08.681Z,3.10
2023-04-27T11:08:45.281Z,3.50
2023-04-27T11:11:16.929Z,3.42
2023-04-27T11:13:49.435Z,8.57
2023-04-27T11:16:19.602Z,3.65
2023-04-27T11:18:47.796Z,2.80
2023-04-27T11:21:16.876Z,3.83
2023-04-27T11:23:45.234Z,2.55
2023-04-27T11:26:14.803Z,3.20
2023-04-27T11:28:43.200Z,3.42
2023-04-27T11:31:13.049Z,3.42
2023-04-27T11:33:49.044Z,3.15
2023-04-27T11:36:21.156Z,2.88
2023-04-27T11:38:49.304Z,3.15
2023-04-27T11:41:17.821Z,2.53
2023-04-27T11:43:49.631Z,2.80
2023-04-27T11:46:22.747Z,2.85
2023-04-27T11:48:51.019Z,3.20
2023-04-27T11:51:19.438Z,2.80
2023-04-27T11:53:51.267Z,2.90
2023-04-27T11:56:19.477Z,2.80
2023-04-27T11:58:47.670Z,2.65
2023-04-27T12:01:21.839Z,2.10
2023-04-27T12:03:58.684Z,3.05
2023-04-27T12:06:33.237Z,2.70
2023-04-27T12:09:01.889Z,2.50
2023-04-27T12:11:30.146Z,2.20
2023-04-27T12:13:58.753Z,2.58
2023-04-27T12:16:27.076Z,3.10
2023-04-27T12:18:56.635Z,2.78
2023-04-27T12:21:24.854Z,2.38
2023-04-27T12:23:53.003Z,2.67
2023-04-27T12:26:21.633Z,3.55
2023-04-27T12:28:49.903Z,2.05
2023-04-27T12:31:19.059Z,3.33
2023-04-27T12:33:49.298Z,3.33
2023-04-27T12:36:18.848Z,3.28
2023-04-27T12:38:47.374Z,2.80
2023-04-27T12:41:15.722Z,2.67
2023-04-27T12:43:45.899Z,3.10
2023-04-27T12:46:14.084Z,2.22
2023-04-27T12:48:42.302Z,2.25
2023-04-27T12:51:10.517Z,1.73
2023-04-27T12:53:40.078Z,1.92
2023-04-27T12:56:08.592Z,1.90
2023-04-27T12:58:36.638Z,2.10
2023-04-27T13:01:04.850Z,2.35
2023-04-27T13:03:33.027Z,2.80
2023-04-27T13:06:02.065Z,2.35
2023-04-27T13:08:30.874Z,2.60
2023-04-27T13:11:00.415Z,2.58
2023-04-27T13:13:28.539Z,2.63
2023-04-27T13:15:58.367Z,2.78
2023-04-27T13:18:26.734Z,2.80
2023-04-27T13:20:54.949Z,2.30
2023-04-27T13:23:23.019Z,2.50
2023-04-27T13:25:51.152Z,2.92
2023-04-27T13:28:20.731Z,2.67
2023-04-27T13:30:49.143Z,2.10
2023-04-27T13:33:23.173Z,2.58
2023-04-27T13:48:49.261Z,2.90
2023-04-27T13:51:17.546Z,2.65
2023-04-27T13:53:45.928Z,2.25
2023-04-27T13:56:14.233Z,3.97
2023-04-27T13:58:42.562Z,2.63
2023-04-27T14:01:10.980Z,2.53
2023-04-27T14:06:09.742Z,2.53
2023-04-27T14:08:38.108Z,3.15
2023-04-27T14:11:07.412Z,2.53
2023-04-27T14:13:35.743Z,2.10
2023-04-27T14:16:03.858Z,2.80
2023-04-27T14:18:33.514Z,2.97
2023-04-27T14:21:02.054Z,3.10
2023-04-27T14:23:31.964Z,2.47
2023-04-27T14:26:00.073Z,2.40
2023-04-27T14:28:28.140Z,2.45
2023-04-27T14:30:56.234Z,2.85
2023-04-27T14:33:24.226Z,2.60
2023-04-27T14:35:52.499Z,2.30
2023-04-27T14:38:20.638Z,2.60
2023-04-27T14:40:50.221Z,2.72
2023-04-27T14:43:18.369Z,2.42
2023-04-27T14:45:52.926Z,2.78
2023-04-27T14:48:26.419Z,2.78
2023-04-27T14:50:57.544Z,2.70
2023-04-27T14:53:26.032Z,2.58
2023-04-27T14:55:55.515Z,2.65
2023-04-27T14:58:23.712Z,2.95
2023-04-27T15:00:52.081Z,2.25
2023-04-27T15:03:20.435Z,2.65
2023-04-27T15:05:48.739Z,3.10
2023-04-27T15:08:17.241Z,2.60
2023-04-27T15:10:45.523Z,3.13
2023-04-27T15:13:15.228Z,2.42
2023-04-27T15:15:45.653Z,2.63
2023-04-27T15:18:13.982Z,2.40
2023-04-27T15:20:43.565Z,2.78
2023-04-27T15:23:12.197Z,3.90
2023-04-27T15:25:40.380Z,2.08
2023-04-27T15:28:08.492Z,2.78
2023-04-27T15:30:37.996Z,2.45
2023-04-27T15:33:08.181Z,3.10
2023-04-27T15:35:40.361Z,2.30
2023-04-27T15:38:09.595Z,2.47
2023-04-27T15:40:38.027Z,2.97
2023-04-27T15:43:06.141Z,2.75
2023-04-27T15:45:34.312Z,2.92
2023-04-27T15:48:03.889Z,10.88
2023-04-27T15:50:32.236Z,3.17
2023-04-27T15:53:00.824Z,3.17
2023-04-27T15:55:29.071Z,4.05
2023-04-27T15:57:57.242Z,3.33
2023-04-27T16:00:25.496Z,3.10
2023-04-27T16:02:53.920Z,3.58
2023-04-27T16:05:23.588Z,3.05
2023-04-27T16:07:51.671Z,3.63
2023-04-27T16:10:19.831Z,4.15
2023-04-27T16:12:47.924Z,2.95
2023-04-27T16:15:16.179Z,2.97
2023-04-27T16:17:44.324Z,2.90
2023-04-27T16:20:12.849Z,3.85
2023-04-27T16:22:42.300Z,3.22
2023-04-27T16:25:11.468Z,4.05
2023-04-27T16:27:40.264Z,3.50
2023-04-27T16:30:09.436Z,3.00
2023-04-27T16:32:38.716Z,3.15
2023-04-27T16:35:08.048Z,2.88
2023-04-27T16:37:36.259Z,3.20
2023-04-27T16:40:07.800Z,2.97
2023-04-27T16:42:36.073Z,2.50
2023-04-27T16:45:04.350Z,2.47
2023-04-27T16:47:32.680Z,3.15
2023-04-27T16:50:01.107Z,2.85
2023-04-27T16:52:29.310Z,2.70
2023-04-27T16:54:57.619Z,3.15
2023-04-27T16:57:27.173Z,3.17
2023-04-27T16:59:55.503Z,4.63
2023-04-27T17:02:24.993Z,4.35
2023-04-27T17:04:54.454Z,3.65
2023-04-27T17:07:22.782Z,3.10
2023-04-27T17:09:50.959Z,3.45
2023-04-27T17:12:19.082Z,3.92
2023-04-27T17:14:48.588Z,4.82
2023-04-27T17:17:16.867Z,3.50
2023-04-27T17:19:45.051Z,2.97
2023-04-27T17:22:15.055Z,3.38
2023-04-27T17:24:43.390Z,3.70
2023-04-27T17:27:11.966Z,4.68
2023-04-27T17:29:42.097Z,5.82
2023-04-27T17:32:11.739Z,5.05
2023-04-27T17:34:42.447Z,3.60
2023-04-27T17:37:11.069Z,5.00
2023-04-27T17:39:39.269Z,4.90
2023-04-27T17:42:12.235Z,7.53
2023-04-27T17:44:42.115Z,9.05
2023-04-27T17:47:11.832Z,8.25
2023-04-27T17:49:40.159Z,4.72
2023-04-27T17:52:08.347Z,3.53
2023-04-27T17:54:36.899Z,4.07
2023-04-27T17:57:05.760Z,2.85
2023-04-27T17:59:34.253Z,2.83
2023-04-27T18:02:03.087Z,3.22
2023-04-27T18:04:32.814Z,3.30
2023-04-27T18:07:01.178Z,3.25
2023-04-27T18:09:30.860Z,3.58
2023-04-27T18:12:02.411Z,2.97
2023-04-27T18:14:30.871Z,3.13
2023-04-27T18:16:59.103Z,2.97
2023-04-27T18:19:27.394Z,3.42
2023-04-27T18:21:57.006Z,2.88
2023-04-27T18:24:25.417Z,4.18
2023-04-27T18:26:55.237Z,4.00
2023-04-27T18:29:23.397Z,3.30
2023-04-27T18:31:51.598Z,3.28
2023-04-27T18:34:19.745Z,3.00
2023-04-27T18:36:51.994Z,4.55
2023-04-27T18:39:22.150Z,3.70
2023-04-27T18:41:50.229Z,5.22
2023-04-27T18:44:18.781Z,3.45
2023-04-27T18:46:46.841Z,3.40
2023-04-27T18:49:15.230Z,3.13
2023-04-27T18:51:43.721Z,3.33
2023-04-27T18:54:11.836Z,2.85
2023-04-27T18:56:41.619Z,3.25
2023-04-27T18:59:09.808Z,3.63
2023-04-27T19:01:38.264Z,3.75
2023-04-27T19:04:07.385Z,2.90
2023-04-27T19:06:35.810Z,3.47
2023-04-27T19:09:03.905Z,3.85
2023-04-27T19:11:32.231Z,3.40
2023-04-27T19:14:01.895Z,3.50
2023-04-27T19:16:30.314Z,2.72
2023-04-27T19:18:58.655Z,3.50
2023-04-27T19:21:26.933Z,3.08
2023-04-27T19:23:55.068Z,3.40
2023-04-27T19:26:23.241Z,3.13
2023-04-27T19:28:51.365Z,3.08
2023-04-27T19:31:21.032Z,3.60
2023-04-27T19:36:23.124Z,3.75
2023-04-27T19:38:51.564Z,3.90
2023-04-27T19:41:19.886Z,4.22
2023-04-27T19:43:49.390Z,4.20
2023-04-27T19:46:17.632Z,5.10
2023-04-27T19:48:47.508Z,5.80
2023-04-27T19:51:15.883Z,5.57
2023-04-27T19:53:44.105Z,6.50
2023-04-27T19:56:12.211Z,6.25
2023-04-27T19:58:40.361Z,7.18
2023-04-27T20:01:09.966Z,6.22
2023-04-27T20:03:40.306Z,6.03
2023-04-27T20:06:11.715Z,5.30
2023-04-27T20:08:40.354Z,6.22
2023-04-27T20:11:08.629Z,5.75
2023-04-27T20:13:36.865Z,6.68
2023-04-27T20:16:06.779Z,6.25
2023-04-27T20:18:35.207Z,8.15
2023-04-27T20:21:04.338Z,9.45
2023-04-27T20:23:34.061Z,12.45
2023-04-27T20:26:02.741Z,8.10
2023-04-27T20:28:30.949Z,7.03
2023-04-27T20:30:59.169Z,6.10
2023-04-27T20:33:27.365Z,6.10
2023-04-27T20:36:03.704Z,6.72
2023-04-27T20:38:39.769Z,6.20
2023-04-27T20:41:08.819Z,6.57
2023-04-27T20:43:40.320Z,7.22
2023-04-27T20:46:08.744Z,20.70
2023-04-27T20:48:36.994Z,22.60
2023-04-27T20:51:05.234Z,28.13
2023-04-27T20:53:34.066Z,27.98
2023-04-27T20:56:03.899Z,22.00
2023-04-27T20:58:32.153Z,16.02
2023-04-27T21:01:00.774Z,15.93
2023-04-27T21:03:29.352Z,14.48
2023-04-27T21:05:57.617Z,12.10
2023-04-27T21:08:26.624Z,11.63
2023-04-27T21:10:54.847Z,18.25
2023-04-27T21:13:24.460Z,16.08
2023-04-27T21:15:52.566Z,18.00
2023-04-27T21:18:29.897Z,17.00
2023-04-27T21:20:58.965Z,15.88
2023-04-27T21:23:27.169Z,14.00
2023-04-27T21:25:55.902Z,14.88
2023-04-27T21:28:25.401Z,12.00
2023-04-27T21:30:53.557Z,8.30
2023-04-27T21:33:21.675Z,6.82
2023-04-27T21:35:50.075Z,6.43
2023-04-27T21:38:18.160Z,5.97
2023-04-27T21:40:46.233Z,5.72
2023-04-27T21:43:14.490Z,6.18
2023-04-27T21:45:44.251Z,5.22
2023-04-27T21:48:12.499Z,6.90
2023-04-27T21:50:40.849Z,10.45
2023-04-27T21:53:09.486Z,11.82
2023-04-27T21:55:37.888Z,12.35
2023-04-27T21:58:06.041Z,13.27
2023-04-27T22:00:36.649Z,13.30
2023-04-27T22:03:06.721Z,11.13
2023-04-27T22:05:37.224Z,8.30
2023-04-27T22:08:05.646Z,7.28
2023-04-27T22:10:33.929Z,5.75
2023-04-27T22:13:08.212Z,4.53
2023-04-27T22:15:45.977Z,4.40
2023-04-27T22:18:15.892Z,5.10
2023-04-27T22:20:44.348Z,5.00
2023-04-27T22:23:12.678Z,6.60
2023-04-27T22:25:42.904Z,14.15
2023-04-27T22:28:11.410Z,10.70
2023-04-27T22:30:41.858Z,9.30
2023-04-27T22:33:10.417Z,9.48
2023-04-27T22:35:40.253Z,9.63
2023-04-27T22:38:08.749Z,11.30
2023-04-27T22:40:37.404Z,10.63
2023-04-27T22:43:06.446Z,9.52
2023-04-27T22:45:36.131Z,10.25
2023-04-27T22:48:06.882Z,8.05
2023-04-27T22:50:35.280Z,7.43
2023-04-27T22:53:05.005Z,12.88
2023-04-27T22:55:33.071Z,22.00
2023-04-27T22:58:01.308Z,18.35
2023-04-27T23:00:29.495Z,19.23
2023-04-27T23:02:57.786Z,13.18
2023-04-27T23:05:26.885Z,15.70
2023-04-27T23:07:55.140Z,13.70
2023-04-27T23:10:25.119Z,17.83
2023-04-27T23:12:54.890Z,17.88
2023-04-27T23:15:24.071Z,18.80
2023-04-27T23:17:52.276Z,15.35
2023-04-27T23:20:28.000Z,13.70
2023-04-27T23:22:56.624Z,15.25
2023-04-27T23:25:26.562Z,14.82
2023-04-27T23:27:54.883Z,14.27
2023-04-27T23:30:24.720Z,14.23
2023-04-27T23:32:53.460Z,12.25
2023-04-27T23:35:21.690Z,11.57
2023-04-27T23:37:49.894Z,10.48
2023-04-27T23:40:18.545Z,11.57
2023-04-27T23:42:50.849Z,9.98
2023-04-27T23:45:19.818Z,10.20
2023-04-27T23:47:47.994Z,10.68
2023-04-27T23:50:17.258Z,9.98
2023-04-27T23:52:45.580Z,9.98
2023-04-27T23:55:13.715Z,9.60
2023-04-27T23:57:42.433Z,10.23
